RJOS(METAR)
12/16 16:00
METAR RJOS 160700Z 29011KT 9999 FEW030 BKN060 BKN140 11/01 Q1015 RMK
1CU030 6SC060 7AC140 A2997=
戻る
トップページへ戻る
IMOC Co,.Ltd.